This is the latest recevied weather packets stored in our database for station/object SV4JYD-13. If no packets are shown the sender has not sent any weather packets the latest 10 day(s).
| Time | Temp. | Humidity | Pressure | Rain* | Wind** | Luminosity | Snow |
|---|---|---|---|---|---|---|---|
| 1777896013 | 14.44° C | 70% | 1019 hPa | 0 mm | - | - | - |
| 1777895112 | 15° C | 70% | 1019 hPa | 0 mm | - | - | - |
| 1777894212 | 15.56° C | 70% | 1020 hPa | 0 mm | - | - | - |
| 1777893312 | 16.11° C | 70% | 1020 hPa | 0 mm | - | - | - |
| 1777892411 | 16.67° C | 70% | 1020 hPa | 0 mm | - | - | - |
| 1777891511 | 17.22° C | 70% | 1020 hPa | 0 mm | - | - | - |
| 1777890611 | 17.22° C | 68% | 1020 hPa | 0 mm | - | - | - |
| 1777889711 | 17.78° C | 68% | 1020 hPa | 0 mm | - | - | - |
| 1777888811 | 17.78° C | 63% | 1020 hPa | 0 mm | - | - | - |
| 1777887910 | 17.78° C | 52% | 1020 hPa | 0 mm | - | - | - |
| 1777887010 | 17.78° C | 39% | 1021 hPa | 0 mm | - | - | - |
| 1777886110 | 18.33° C | 10% | - | 0 mm | - | - | - |
| 1777885209 | 15° C | 91% | 1020 hPa | 0 mm | - | - | - |
| 1777884309 | 15° C | 88% | 1020 hPa | 0 mm | - | - | - |
| 1777883409 | 15° C | 84% | 1021 hPa | 0 mm | - | - | - |
| 1777882509 | 15° C | 79% | 1021 hPa | 0 mm | - | - | - |
| 1777881608 | 15.56° C | 73% | 1020 hPa | 0 mm | - | - | - |
| 1777880708 | 16.11° C | 65% | 1020 hPa | 0 mm | - | - | - |
| 1777879808 | 15° C | 69% | 1020 hPa | 0 mm | - | - | - |
| 1777878907 | 14.44° C | 74% | 1020 hPa | 0 mm | - | - | - |
| 1777878007 | 13.89° C | 74% | 1020 hPa | 0 mm | - | - | - |
| 1777877107 | 13.89° C | 75% | 1020 hPa | 0 mm | - | - | - |
| 1777876207 | 12.78° C | 81% | 1020 hPa | 0 mm | - | - | - |
| 1777875306 | 12.78° C | 81% | 1020 hPa | 0 mm | - | - | - |
| 1777874407 | 8.89° C | 96% | 1020 hPa | 0 mm | - | - | - |
* Rain latest hour (hover to see other rain measurements)
** Current wind speed in m/s (hover to see current wind gust speed)